Time;durP1;ratioP1;P1;durP2;ratioP2;P2;SDS_P1;SDS_P2;PMS_P1;PMS_P2;Temp;Humidity;BMP_temperature;BMP_pressure;BME280_temperature;BME280_humidity;BME280_pressure;Samples;Min_cycle;Max_cycle;Signal;HPM_P1;HPM_P2
2022/06/14 00:01:32;;;;;;;4.05;3.15;;;;;;;17.69;85.96;94588.31;5051170;28;20629;-72
2022/06/14 00:03:59;;;;;;;6.43;4.85;;;;;;;17.69;86.40;94578.16;5051835;28;20231;-73
2022/06/14 00:06:30;;;;;;;5.30;3.33;;;;;;;17.68;86.28;94576.56;5051198;28;20666;-73
2022/06/14 00:08:58;;;;;;;5.70;3.33;;;;;;;17.55;87.16;94577.94;5051533;28;20272;-72
2022/06/14 00:11:28;;;;;;;11.80;3.40;;;;;;;17.45;87.17;94573.13;5051253;28;20207;-72
2022/06/14 00:13:57;;;;;;;6.13;3.53;;;;;;;17.42;87.60;94579.34;5050701;28;20231;-72
2022/06/14 00:16:25;;;;;;;4.57;3.35;;;;;;;17.46;87.72;94580.19;5050660;28;20204;-72
2022/06/14 00:18:52;;;;;;;4.90;3.65;;;;;;;17.33;87.55;94579.66;5051189;28;20222;-73
2022/06/14 00:21:19;;;;;;;5.85;3.95;;;;;;;17.44;87.21;94582.50;5051141;28;20212;-73
2022/06/14 00:23:47;;;;;;;6.88;3.83;;;;;;;17.17;88.87;94583.72;5051303;28;20200;-72
2022/06/14 00:26:15;;;;;;;5.78;4.07;;;;;;;17.13;89.25;94578.19;5050369;28;20211;-72
2022/06/14 00:28:44;;;;;;;5.38;3.70;;;;;;;17.10;89.54;94586.34;5050765;28;20235;-72
2022/06/14 00:31:14;;;;;;;7.70;3.63;;;;;;;17.07;89.48;94589.84;5050764;28;20265;-72
2022/06/14 00:33:42;;;;;;;5.50;3.67;;;;;;;17.05;89.13;94582.00;5050722;28;20768;-72
2022/06/14 00:36:19;;;;;;;4.50;3.50;;;;;;;17.05;88.78;94588.25;5051166;28;20199;-72
2022/06/14 00:38:47;;;;;;;6.05;3.90;;;;;;;17.09;88.77;94582.03;5050996;28;20248;-72
2022/06/14 00:41:24;;;;;;;6.57;5.03;;;;;;;17.10;88.86;94583.59;5050269;28;20295;-72
2022/06/14 00:43:51;;;;;;;5.70;3.60;;;;;;;17.14;88.59;94573.50;5052699;28;20631;-72
2022/06/14 00:46:21;;;;;;;12.18;3.75;;;;;;;17.18;88.55;94574.34;5050759;28;20204;-73
2022/06/14 00:48:54;;;;;;;5.15;3.70;;;;;;;17.08;88.19;94585.94;5050003;28;20293;-72
2022/06/14 00:51:26;;;;;;;8.63;5.43;;;;;;;17.02;88.21;94583.50;5050583;28;20685;-72
2022/06/14 00:54:02;;;;;;;5.18;3.72;;;;;;;16.91;88.72;94587.25;5050674;28;20253;-72
2022/06/14 00:56:36;;;;;;;5.20;3.60;;;;;;;16.85;89.41;94600.44;5050704;28;20694;-73
2022/06/14 00:59:11;;;;;;;7.60;3.80;;;;;;;16.69;90.08;94592.38;5050886;28;20235;-73
2022/06/14 01:01:42;;;;;;;4.95;3.67;;;;;;;16.66;89.92;94593.16;5050526;28;20278;-72
2022/06/14 01:04:14;;;;;;;6.43;3.35;;;;;;;16.65;89.56;94601.72;5050909;28;20200;-72
2022/06/14 01:06:51;;;;;;;7.32;3.65;;;;;;;16.66;89.33;94603.28;5050626;28;20674;-72
2022/06/14 01:09:24;;;;;;;5.88;3.60;;;;;;;16.72;89.19;94601.81;5050325;28;20644;-72
2022/06/14 01:11:54;;;;;;;5.40;3.50;;;;;;;16.73;89.16;94597.13;5050630;28;20231;-73
2022/06/14 01:14:23;;;;;;;5.55;3.50;;;;;;;16.77;88.30;94589.78;5050477;28;20776;-72
2022/06/14 01:16:52;;;;;;;6.05;5.03;;;;;;;16.87;88.26;94598.13;5050053;28;20254;-73
2022/06/14 01:19:21;;;;;;;5.88;3.75;;;;;;;16.82;88.37;94583.97;5050436;28;20208;-72
2022/06/14 01:21:54;;;;;;;4.93;3.40;;;;;;;16.80;88.49;94580.84;5050311;28;20237;-72
2022/06/14 01:24:23;;;;;;;5.88;3.80;;;;;;;16.74;88.96;94585.81;5050538;28;20642;-72
2022/06/14 01:26:50;;;;;;;9.93;5.38;;;;;;;16.74;88.74;94577.63;5050458;28;20290;-72
2022/06/14 01:29:18;;;;;;;5.43;4.63;;;;;;;16.70;88.94;94582.22;5050374;28;20235;-71
2022/06/14 01:31:47;;;;;;;5.05;3.72;;;;;;;16.73;88.88;94581.50;5050059;28;20629;-72
2022/06/14 01:34:14;;;;;;;4.95;3.28;;;;;;;16.68;88.20;94574.41;5050109;28;20671;-71
2022/06/14 01:36:42;;;;;;;8.20;5.75;;;;;;;16.64;88.77;94575.50;5050373;28;20208;-72
2022/06/14 01:39:15;;;;;;;10.70;8.23;;;;;;;16.64;88.83;94570.84;5050560;28;20307;-72
2022/06/14 01:41:56;;;;;;;13.43;9.10;;;;;;;16.61;89.56;94576.22;5050371;28;20227;-71
2022/06/14 01:44:36;;;;;;;10.38;6.68;;;;;;;16.55;89.77;94580.41;5050182;28;20202;-72
2022/06/14 01:47:18;;;;;;;6.57;5.10;;;;;;;16.57;89.63;94578.09;5050105;28;20233;-72
2022/06/14 01:52:56;;;;;;;6.38;4.13;;;;;;;16.53;90.00;94577.28;5030225;28;20191;-71
2022/06/14 01:55:41;;;;;;;6.55;4.47;;;;;;;16.53;90.42;94588.22;5046965;28;20294;-72
2022/06/14 01:58:20;;;;;;;6.85;4.50;;;;;;;16.44;90.94;94584.91;5049732;28;20231;-71
2022/06/14 02:00:51;;;;;;;8.45;5.63;;;;;;;16.44;90.86;94588.44;5037895;28;20284;-71
2022/06/14 02:06:18;;;;;;;6.45;4.78;;;;;;;16.23;91.10;94588.88;5053639;28;20562;-71
2022/06/14 02:08:51;;;;;;;6.40;4.97;;;;;;;16.13;91.50;94591.41;5053340;28;20255;-72
2022/06/14 02:11:25;;;;;;;5.07;3.50;;;;;;;15.83;93.37;94605.72;5053983;28;20195;-73
2022/06/14 02:13:56;;;;;;;4.60;3.42;;;;;;;15.72;94.38;94598.44;5053561;28;20231;-71
2022/06/14 02:16:28;;;;;;;6.05;3.90;;;;;;;15.84;93.64;94601.03;5053728;28;20291;-71
2022/06/14 02:19:00;;;;;;;5.45;3.88;;;;;;;15.97;93.51;94607.94;5053133;28;20658;-71
2022/06/14 02:21:33;;;;;;;5.15;3.78;;;;;;;16.05;93.06;94604.16;5053232;28;20687;-71
2022/06/14 02:24:05;;;;;;;7.35;4.40;;;;;;;15.91;93.54;94606.63;5052680;28;20228;-72
2022/06/14 02:26:38;;;;;;;9.13;4.60;;;;;;;15.78;95.00;94614.19;5052501;28;20223;-72
2022/06/14 02:29:10;;;;;;;6.68;5.28;;;;;;;15.79;95.40;94620.44;5052941;28;20768;-72
2022/06/14 02:31:41;;;;;;;5.65;4.40;;;;;;;15.94;94.26;94622.31;5040108;28;20284;-72
2022/06/14 02:34:13;;;;;;;8.75;5.47;;;;;;;16.00;93.63;94620.84;5053333;28;20195;-71
2022/06/14 02:36:44;;;;;;;7.88;4.35;;;;;;;16.06;92.77;94619.41;5052399;28;20228;-72
2022/06/14 02:39:15;;;;;;;5.32;3.88;;;;;;;16.07;92.66;94615.53;5052173;28;20676;-72
2022/06/14 02:41:48;;;;;;;5.00;3.95;;;;;;;16.08;92.09;94617.09;5052797;28;20192;-71
2022/06/14 02:44:22;;;;;;;6.78;4.22;;;;;;;15.97;92.09;94619.66;5054969;28;20223;-74
2022/06/14 02:46:54;;;;;;;6.30;3.95;;;;;;;15.98;91.91;94623.16;5053240;28;20200;-72
2022/06/14 02:49:29;;;;;;;8.20;4.65;;;;;;;16.03;92.38;94622.84;5039574;28;20243;-73
2022/06/14 02:52:02;;;;;;;7.05;4.80;;;;;;;16.09;92.24;94628.81;5051637;28;20334;-72
2022/06/14 02:54:34;;;;;;;10.10;4.72;;;;;;;16.10;92.41;94633.94;5051895;28;20239;-71
2022/06/14 02:57:09;;;;;;;12.13;4.93;;;;;;;16.13;92.55;94635.91;5053169;28;20211;-71
2022/06/14 02:59:42;;;;;;;5.28;4.05;;;;;;;16.18;92.65;94630.16;5052569;28;20281;-71
2022/06/14 03:02:15;;;;;;;8.23;4.57;;;;;;;16.22;92.14;94633.75;5052402;28;20798;-72
2022/06/14 03:04:47;;;;;;;8.60;4.55;;;;;;;16.20;92.74;94636.06;5052875;28;20191;-72
2022/06/14 03:07:19;;;;;;;7.70;4.68;;;;;;;16.46;92.69;94640.03;5039041;28;20223;-72
2022/06/14 03:09:47;;;;;;;7.80;5.80;;;;;;;16.74;91.95;94637.81;5052414;28;20666;-72
2022/06/14 03:12:32;;;;;;;8.93;6.22;;;;;;;17.15;90.29;94646.25;5052359;28;20204;-71
2022/06/14 03:15:09;;;;;;;12.07;6.15;;;;;;;17.71;88.63;94647.06;5051679;28;20235;-73
2022/06/14 03:17:48;;;;;;;11.05;5.90;;;;;;;17.76;88.01;94648.69;5052958;28;20192;-71
2022/06/14 03:20:32;;;;;;;7.75;5.50;;;;;;;18.72;85.11;94649.75;5038899;28;20696;-71
2022/06/14 03:23:08;;;;;;;11.40;5.55;;;;;;;19.64;80.92;94644.94;5052260;28;20599;-71
2022/06/14 03:25:43;;;;;;;8.00;4.97;;;;;;;20.59;77.19;94629.97;5051711;28;20627;-73
2022/06/14 03:28:15;;;;;;;9.00;4.88;;;;;;;21.56;72.51;94629.53;5052093;28;21027;-72
2022/06/14 03:30:46;;;;;;;11.95;4.95;;;;;;;22.08;69.19;94620.72;5052286;28;20199;-72
2022/06/14 03:33:22;;;;;;;10.18;5.30;;;;;;;21.82;69.84;94625.53;5039108;28;20196;-73
2022/06/14 03:35:51;;;;;;;6.78;4.65;;;;;;;22.40;68.43;94620.56;5051967;28;20227;-72
2022/06/14 03:38:24;;;;;;;9.73;6.68;;;;;;;22.70;66.85;94617.97;5052164;28;20220;-72
2022/06/14 03:40:52;;;;;;;10.95;4.53;;;;;;;23.28;64.90;94617.16;5051876;28;20345;-71
2022/06/14 03:43:21;;;;;;;5.90;4.40;;;;;;;23.54;64.01;94614.94;5051797;28;20251;-71
2022/06/14 03:45:55;;;;;;;7.50;4.32;;;;;;;22.92;65.55;94618.66;5049196;28;20287;-72
2022/06/14 03:48:23;;;;;;;8.50;5.68;;;;;;;22.94;64.50;94621.81;5051790;28;20577;-73
2022/06/14 03:51:01;;;;;;;6.95;5.63;;;;;;;22.55;66.10;94622.06;5051801;28;20227;-72
2022/06/14 03:53:45;;;;;;;9.10;6.05;;;;;;;22.10;67.41;94623.88;5051467;28;20273;-73
2022/06/14 03:56:26;;;;;;;9.95;6.03;;;;;;;21.30;69.50;94620.94;5051254;28;20216;-73
2022/06/14 03:59:06;;;;;;;8.80;6.75;;;;;;;21.20;69.87;94628.81;5051409;28;20219;-71
2022/06/14 04:01:42;;;;;;;5.18;4.40;;;;;;;21.09;70.67;94633.50;5051726;28;20253;-73
2022/06/14 04:04:26;;;;;;;8.95;6.47;;;;;;;20.44;72.80;94636.63;5051561;28;20318;-72
2022/06/14 04:07:07;;;;;;;10.30;7.22;;;;;;;20.16;74.31;94634.53;5051281;28;20196;-72
2022/06/14 04:09:43;;;;;;;8.95;6.65;;;;;;;20.77;73.76;94641.00;5051267;28;20690;-71
2022/06/14 04:12:21;;;;;;;9.15;6.75;;;;;;;20.77;72.79;94643.75;5039496;28;20620;-72
2022/06/14 04:15:04;;;;;;;9.75;7.75;;;;;;;20.97;72.63;94653.19;5049755;28;20908;-72
2022/06/14 04:17:41;;;;;;;13.10;7.75;;;;;;;20.90;72.44;94644.94;5051169;28;20200;-73
2022/06/14 04:20:14;;;;;;;11.32;7.95;;;;;;;21.02;72.20;94650.06;5050901;28;20234;-72
2022/06/14 04:22:52;;;;;;;8.60;6.88;;;;;;;20.93;72.18;94647.66;5050495;28;20227;-72
2022/06/14 04:25:28;;;;;;;9.10;7.32;;;;;;;20.84;73.04;94643.75;5050685;28;20664;-72
2022/06/14 04:28:00;;;;;;;13.35;7.90;;;;;;;20.52;74.03;94655.50;5050375;28;20260;-73
2022/06/14 04:30:36;;;;;;;9.38;7.25;;;;;;;20.78;73.58;94648.84;5050957;28;20277;-73
2022/06/14 04:33:10;;;;;;;11.88;7.90;;;;;;;20.99;73.01;94652.81;5051032;28;20572;-73
2022/06/14 04:35:43;;;;;;;8.68;7.50;;;;;;;21.24;72.31;94656.38;5050141;28;20590;-73
2022/06/14 04:38:16;;;;;;;12.48;7.30;;;;;;;21.07;72.37;94657.91;5050756;28;20204;-73
2022/06/14 04:40:49;;;;;;;8.85;7.72;;;;;;;21.83;71.01;94654.69;5051108;28;20219;-74
2022/06/14 04:43:20;;;;;;;8.43;7.20;;;;;;;24.16;63.82;94644.31;5050679;28;20737;-73
2022/06/14 04:45:56;;;;;;;13.23;7.22;;;;;;;26.16;57.59;94637.97;5048050;28;20631;-73
2022/06/14 04:48:30;;;;;;;8.23;6.85;;;;;;;27.42;53.84;94643.91;5050375;28;20226;-73
2022/06/14 04:51:03;;;;;;;9.10;6.30;;;;;;;29.22;48.82;94637.25;5037376;28;20223;-73
2022/06/14 04:53:36;;;;;;;11.02;6.28;;;;;;;28.19;50.81;94657.03;5050246;28;20212;-72
2022/06/14 04:56:09;;;;;;;8.60;7.22;;;;;;;27.50;51.95;94658.41;5050749;28;20280;-72
2022/06/14 04:58:41;;;;;;;11.60;6.65;;;;;;;26.98;52.65;94661.28;5050010;28;20709;-73
2022/06/14 05:01:15;;;;;;;11.55;7.25;;;;;;;27.31;52.71;94664.88;5050545;28;20203;-72
2022/06/14 05:03:50;;;;;;;7.97;6.57;;;;;;;27.70;52.05;94655.56;5049999;28;20640;-72
2022/06/14 05:06:24;;;;;;;10.57;7.32;;;;;;;29.22;48.25;94647.63;5043593;28;20241;-72
2022/06/14 05:08:57;;;;;;;9.48;6.38;;;;;;;30.62;45.23;94650.78;5036033;28;20584;-72
2022/06/14 05:11:30;;;;;;;9.98;6.50;;;;;;;30.48;44.83;94657.66;5044522;28;20188;-73
2022/06/14 05:14:03;;;;;;;11.02;6.95;;;;;;;28.45;49.35;94673.84;5041325;28;20294;-73
2022/06/14 05:16:36;;;;;;;11.90;6.53;;;;;;;29.46;48.12;94673.19;5044387;28;20318;-73
2022/06/14 05:19:10;;;;;;;10.10;7.93;;;;;;;30.04;45.58;94654.09;5038098;28;20242;-74
2022/06/14 05:21:45;;;;;;;9.25;7.50;;;;;;;29.02;48.26;94663.81;5043445;28;20231;-72
2022/06/14 05:24:12;;;;;;;7.93;6.55;;;;;;;28.85;49.19;94661.09;5043215;28;20632;-73
2022/06/14 05:26:57;;;;;;;7.75;6.63;;;;;;;27.72;52.21;94672.63;5036783;28;20199;-73
2022/06/14 05:29:30;;;;;;;8.65;5.90;;;;;;;26.47;54.99;94675.47;5050018;28;20297;-72
2022/06/14 05:32:07;;;;;;;10.32;5.78;;;;;;;25.80;57.53;94676.75;5050570;28;20764;-72
2022/06/14 05:34:44;;;;;;;9.77;5.15;;;;;;;25.14;58.82;94686.53;5050257;28;20231;-73
2022/06/14 05:37:19;;;;;;;8.00;4.30;;;;;;;23.96;60.78;94697.50;5052316;28;20261;-73
2022/06/14 05:39:51;;;;;;;5.63;3.92;;;;;;;22.92;63.18;94696.03;5042291;28;20314;-72
2022/06/14 05:42:20;;;;;;;7.90;4.18;;;;;;;22.54;65.30;94704.09;5054044;28;20199;-73
2022/06/14 05:44:50;;;;;;;7.57;4.68;;;;;;;22.52;66.22;94709.25;5056766;28;20257;-72
2022/06/14 05:47:24;;;;;;;5.30;4.00;;;;;;;22.31;66.31;94712.06;5054276;28;20273;-72
2022/06/14 05:49:55;;;;;;;5.95;3.97;;;;;;;22.25;66.99;94708.19;5053770;28;20318;-73
2022/06/14 05:52:29;;;;;;;4.80;4.05;;;;;;;22.21;68.31;94715.69;5053748;28;20764;-73
2022/06/14 05:55:03;;;;;;;5.50;4.38;;;;;;;21.73;69.34;94716.16;5054117;28;20716;-72
2022/06/14 05:57:36;;;;;;;6.28;4.55;;;;;;;21.39;70.30;94723.28;5040938;28;20650;-73
2022/06/14 06:00:10;;;;;;;4.90;4.00;;;;;;;21.16;71.13;94732.72;5053302;28;20223;-72
2022/06/14 06:02:50;;;;;;;12.60;5.32;;;;;;;21.14;71.68;94735.06;5053865;28;20552;-72
2022/06/14 06:05:21;;;;;;;6.78;4.85;;;;;;;21.33;71.81;94735.88;5054071;28;20200;-74
2022/06/14 06:07:53;;;;;;;6.00;4.93;;;;;;;21.33;71.72;94730.34;5054231;28;20206;-73
2022/06/14 06:10:26;;;;;;;7.45;4.97;;;;;;;21.55;70.40;94726.44;5053518;28;20720;-73
2022/06/14 06:12:57;;;;;;;5.57;5.00;;;;;;;21.79;69.53;94731.13;5053569;28;20196;-73
2022/06/14 06:15:28;;;;;;;5.28;4.40;;;;;;;21.68;70.57;94730.34;5040907;28;20330;-72
2022/06/14 06:18:04;;;;;;;5.95;4.60;;;;;;;21.46;69.90;94728.78;5053583;28;20191;-71
2022/06/14 06:20:36;;;;;;;6.35;4.78;;;;;;;21.26;70.43;94725.66;5053659;28;20234;-71
2022/06/14 06:23:10;;;;;;;5.32;4.53;;;;;;;21.28;70.52;94732.34;5053374;28;20289;-72
2022/06/14 06:25:41;;;;;;;7.13;4.60;;;;;;;21.27;70.90;94739.03;5053436;28;20234;-72
2022/06/14 06:28:13;;;;;;;6.32;4.55;;;;;;;21.37;70.64;94731.16;5051795;28;20227;-72
2022/06/14 06:30:45;;;;;;;9.48;5.07;;;;;;;21.57;70.82;94743.38;5052948;28;20220;-72
2022/06/14 06:33:16;;;;;;;5.28;4.65;;;;;;;21.80;70.54;94743.72;5052888;28;20698;-72
2022/06/14 06:35:50;;;;;;;5.72;4.43;;;;;;;21.55;70.55;94732.72;5053223;28;20187;-72
2022/06/14 06:38:29;;;;;;;6.30;5.00;;;;;;;21.92;70.54;94737.78;5053544;28;20306;-73
2022/06/14 06:43:47;;;;;;;5.95;4.90;;;;;;;22.38;67.92;94734.16;5055130;28;20202;-73
2022/06/14 06:46:15;;;;;;;5.80;5.15;;;;;;;22.55;67.70;94738.03;5052311;28;20674;-73
2022/06/14 06:48:52;;;;;;;7.95;4.80;;;;;;;22.66;67.69;94744.28;5052409;28;20215;-73
2022/06/14 06:51:23;;;;;;;5.78;4.70;;;;;;;22.66;66.23;94742.31;5049953;28;20231;-71
2022/06/14 06:53:58;;;;;;;8.35;5.35;;;;;;;22.92;66.00;94741.00;5052622;28;20719;-73
2022/06/14 06:56:30;;;;;;;9.18;5.20;;;;;;;22.79;65.68;94742.66;5052349;28;20195;-72
2022/06/14 06:59:01;;;;;;;8.02;4.40;;;;;;;22.94;65.23;94748.91;5051289;28;20269;-72
2022/06/14 07:01:33;;;;;;;6.20;4.15;;;;;;;22.84;65.24;94738.69;5051444;28;20213;-73
2022/06/14 07:04:14;;;;;;;6.30;5.00;;;;;;;22.69;66.29;94749.78;5052098;28;20210;-72
2022/06/14 07:06:44;;;;;;;6.13;4.97;;;;;;;23.03;65.67;94752.78;5052171;28;20192;-73
2022/06/14 07:09:15;;;;;;;5.47;4.82;;;;;;;22.41;66.14;94752.69;5052856;28;20204;-72
2022/06/14 07:11:47;;;;;;;9.05;4.57;;;;;;;22.14;67.50;94765.38;5051964;28;20196;-72
2022/06/14 07:14:20;;;;;;;9.45;4.88;;;;;;;22.21;67.98;94759.84;5051806;28;20231;-73
2022/06/14 07:16:54;;;;;;;7.40;5.53;;;;;;;22.20;67.33;94761.00;5051973;28;20227;-73
2022/06/14 07:19:32;;;;;;;6.60;5.07;;;;;;;22.57;66.28;94764.03;5052450;28;20747;-73
2022/06/14 07:22:08;;;;;;;5.78;4.55;;;;;;;22.85;66.13;94756.81;5052252;28;20199;-71
2022/06/14 07:24:42;;;;;;;8.18;5.10;;;;;;;23.03;64.14;94757.53;5051809;28;20567;-72
2022/06/14 07:27:15;;;;;;;6.70;4.25;;;;;;;23.06;64.18;94756.72;5052276;28;20219;-72
2022/06/14 07:29:48;;;;;;;6.30;4.88;;;;;;;22.84;65.27;94756.03;5051336;28;20235;-73
2022/06/14 07:32:20;;;;;;;5.88;4.50;;;;;;;23.10;64.99;94768.53;5051529;28;20257;-73
2022/06/14 07:34:49;;;;;;;5.75;4.40;;;;;;;23.86;62.55;94759.28;5037962;28;20231;-73
2022/06/14 07:37:20;;;;;;;4.80;4.40;;;;;;;23.89;61.85;94764.00;5051996;28;20212;-72
2022/06/14 07:39:56;;;;;;;5.07;4.57;;;;;;;24.00;61.03;94764.69;5051463;28;20223;-73
2022/06/14 07:42:31;;;;;;;7.47;4.00;;;;;;;24.22;61.10;94764.47;5051852;28;20274;-73
2022/06/14 07:45:06;;;;;;;5.13;3.88;;;;;;;23.99;60.36;94765.09;5053789;28;20310;-72
2022/06/14 07:47:38;;;;;;;5.93;4.35;;;;;;;24.24;60.69;94767.63;5051710;28;20959;-72
2022/06/14 07:50:12;;;;;;;5.65;4.00;;;;;;;24.42;59.47;94771.78;5051304;28;20690;-72
2022/06/14 07:52:45;;;;;;;5.45;4.30;;;;;;;23.87;61.15;94777.47;5038541;28;20199;-71
2022/06/14 07:55:19;;;;;;;5.53;4.75;;;;;;;23.98;62.00;94775.38;5051794;28;20653;-73
2022/06/14 07:57:48;;;;;;;6.38;4.65;;;;;;;24.52;60.06;94778.41;5051491;28;20218;-73
2022/06/14 08:03:10;;;;;;;5.28;4.60;;;;;;;24.84;58.82;94766.16;5051128;28;20277;-72
2022/06/14 08:05:43;;;;;;;4.70;4.28;;;;;;;24.55;60.17;94771.25;5038699;28;20191;-71
2022/06/14 08:08:16;;;;;;;11.73;4.55;;;;;;;25.04;60.16;94754.00;5051215;28;20242;-74
2022/06/14 08:10:49;;;;;;;8.15;4.38;;;;;;;26.25;57.79;94762.38;5051206;28;20249;-73
2022/06/14 08:13:21;;;;;;;4.95;4.45;;;;;;;27.23;54.52;94753.28;5051076;28;20203;-73
2022/06/14 08:15:51;;;;;;;6.72;4.82;;;;;;;27.42;53.48;94746.88;5050947;28;20235;-73
2022/06/14 08:18:23;;;;;;;6.28;5.18;;;;;;;26.98;54.94;94747.47;5051356;28;20239;-73
2022/06/14 08:20:55;;;;;;;7.40;4.13;;;;;;;26.31;56.96;94750.41;5051109;28;20253;-74
2022/06/14 08:23:28;;;;;;;5.47;4.43;;;;;;;26.41;55.41;94754.16;5051543;28;20196;-73
2022/06/14 08:26:03;;;;;;;6.80;4.32;;;;;;;27.94;52.56;94730.09;5051188;28;20220;-73
2022/06/14 08:28:36;;;;;;;5.57;3.90;;;;;;;28.15;50.17;94728.78;5050791;28;20266;-72
2022/06/14 08:31:10;;;;;;;4.22;3.83;;;;;;;27.90;51.03;94728.63;5050647;28;20665;-74
2022/06/14 08:33:42;;;;;;;6.50;4.07;;;;;;;27.01;52.66;94741.06;5050520;28;20219;-72
2022/06/14 08:36:17;;;;;;;6.63;4.38;;;;;;;26.55;53.15;94738.00;5050851;28;20203;-71
2022/06/14 08:38:49;;;;;;;5.82;5.05;;;;;;;26.62;52.30;94731.53;5051233;28;20276;-73
2022/06/14 08:41:33;;;;;;;6.32;3.75;;;;;;;27.14;50.93;94739.19;5050976;28;20227;-73
2022/06/14 08:44:06;;;;;;;4.25;3.80;;;;;;;27.82;51.53;94721.69;5052697;28;20219;-73
2022/06/14 08:46:41;;;;;;;4.80;4.00;;;;;;;28.71;49.21;94725.63;5040336;28;20228;-71
2022/06/14 08:49:27;;;;;;;3.65;3.35;;;;;;;28.47;48.89;94727.13;5049128;28;20310;-72
2022/06/14 08:52:17;;;;;;;4.07;3.70;;;;;;;27.49;48.86;94723.66;5050868;28;20613;-70
2022/06/14 08:55:10;;;;;;;4.95;3.25;;;;;;;26.47;50.55;94730.25;5050645;28;20234;-72
2022/06/14 08:58:00;;;;;;;4.65;3.45;;;;;;;25.67;53.79;94736.84;5038312;28;20651;-71
2022/06/14 09:00:42;;;;;;;5.70;3.58;;;;;;;25.88;50.90;94733.69;5049907;28;20685;-73
2022/06/14 09:03:33;;;;;;;4.43;4.03;;;;;;;26.19;54.79;94732.34;5050659;28;20199;-73
2022/06/14 09:06:33;;;;;;;4.80;4.30;;;;;;;26.28;56.15;94733.75;5040267;28;20198;-75
2022/06/14 09:09:39;;;;;;;5.15;4.25;;;;;;;25.73;55.76;94732.38;5038289;28;20204;-73
2022/06/14 09:12:43;;;;;;;5.05;3.92;;;;;;;25.78;56.45;94729.91;5038779;28;20218;-73
2022/06/14 09:15:38;;;;;;;5.90;4.32;;;;;;;25.50;55.32;94733.91;5054618;28;20247;-73
2022/06/14 09:18:17;;;;;;;4.47;3.90;;;;;;;25.46;55.56;94729.63;5055023;28;20269;-72
2022/06/14 09:21:08;;;;;;;4.93;4.20;;;;;;;26.06;54.83;94734.16;5054398;28;20286;-73
2022/06/14 09:23:46;;;;;;;8.05;4.50;;;;;;;26.43;53.13;94724.75;5042644;28;20227;-73
2022/06/14 09:26:40;;;;;;;5.07;3.78;;;;;;;26.13;53.19;94725.69;5054494;28;20227;-72
2022/06/14 09:29:41;;;;;;;5.60;4.13;;;;;;;25.56;55.77;94731.41;5054271;28;20211;-72
2022/06/14 09:33:09;;;;;;;3.83;3.50;;;;;;;25.72;53.29;94725.25;5046141;28;20633;-71
2022/06/14 09:35:45;;;;;;;4.20;3.72;;;;;;;26.53;52.10;94717.41;5044260;28;20347;-72
2022/06/14 09:38:51;;;;;;;5.45;3.55;;;;;;;26.92;51.95;94711.78;5041606;28;20670;-71
2022/06/14 09:41:30;;;;;;;4.65;4.25;;;;;;;26.81;51.46;94724.38;5039873;28;20578;-72
2022/06/14 09:44:33;;;;;;;4.50;4.00;;;;;;;26.34;52.08;94720.97;5056698;28;20191;-70
2022/06/14 09:47:17;;;;;;;5.45;3.90;;;;;;;26.63;53.04;94719.22;5023466;28;20558;-74
2022/06/14 09:50:35;;;;;;;5.70;3.92;;;;;;;26.29;53.57;94729.81;5054445;28;20288;-73
2022/06/14 09:53:38;;;;;;;5.95;3.42;;;;;;;25.76;54.46;94731.53;5043948;28;20223;-72
2022/06/14 09:56:38;;;;;;;6.57;3.72;;;;;;;26.43;53.19;94726.75;5040677;28;20210;-73
2022/06/14 09:59:36;;;;;;;6.15;3.70;;;;;;;25.35;55.58;94724.25;5025227;28;20210;-72
2022/06/14 10:02:14;;;;;;;4.95;3.88;;;;;;;24.71;56.06;94733.44;5054389;28;20200;-73
2022/06/14 10:05:08;;;;;;;4.28;3.88;;;;;;;24.50;56.35;94725.41;5053127;28;20253;-72
2022/06/14 10:08:02;;;;;;;8.63;4.20;;;;;;;24.02;58.59;94745.69;5043093;28;20219;-70
2022/06/14 10:10:46;;;;;;;7.82;3.13;;;;;;;23.33;55.79;94737.59;5041070;28;20425;-72
2022/06/14 10:13:49;;;;;;;3.67;2.55;;;;;;;23.04;54.45;94753.56;5053614;28;20243;-73
2022/06/14 10:16:27;;;;;;;4.10;3.08;;;;;;;22.96;55.66;94744.53;5053556;28;20200;-73
2022/06/14 10:19:13;;;;;;;4.07;2.88;;;;;;;22.21;55.36;94759.84;5053915;28;20279;-73
2022/06/14 10:21:45;;;;;;;2.67;2.15;;;;;;;21.57;56.90;94752.44;5053636;28;20242;-70
2022/06/14 10:24:28;;;;;;;3.20;2.30;;;;;;;20.79;62.30;94759.78;5053226;28;20310;-70
2022/06/14 10:30:11;;;;;;;3.10;2.80;;;;;;;18.95;72.84;94770.34;5040194;28;20246;-75
2022/06/14 10:33:02;;;;;;;5.78;1.90;;;;;;;18.07;80.11;94779.09;5052412;28;20199;-74
2022/06/14 10:35:39;;;;;;;5.93;2.95;;;;;;;17.84;80.42;94775.63;5049475;28;20195;-70
2022/06/14 10:38:31;;;;;;;4.00;2.67;;;;;;;17.87;80.99;94777.63;5040397;28;20435;-70
2022/06/14 10:41:01;;;;;;;5.25;3.33;;;;;;;18.11;85.28;94783.47;5052832;28;20866;-69
2022/06/14 10:43:38;;;;;;;4.47;3.00;;;;;;;18.03;82.46;94778.25;5053768;28;20227;-69
2022/06/14 10:46:11;;;;;;;4.38;2.70;;;;;;;17.98;78.20;94782.09;5039522;28;20219;-69
2022/06/14 10:49:12;;;;;;;4.13;2.92;;;;;;;18.10;80.35;94778.34;5053271;28;20191;-68
2022/06/14 10:52:24;;;;;;;6.50;3.60;;;;;;;17.90;80.68;94785.91;5052738;28;20238;-69
2022/06/14 10:55:02;;;;;;;4.22;2.95;;;;;;;17.97;79.87;94780.53;5004191;28;20211;-69
2022/06/14 10:57:44;;;;;;;4.65;2.70;;;;;;;18.16;78.79;94779.63;5039524;28;20192;-69
2022/06/14 11:00:19;;;;;;;6.10;3.30;;;;;;;18.25;83.75;94791.09;5052599;28;20241;-70
2022/06/14 11:03:00;;;;;;;8.40;2.80;;;;;;;18.25;84.98;94777.38;5052847;28;20195;-69
2022/06/14 11:05:38;;;;;;;5.20;3.05;;;;;;;18.36;85.64;94781.03;5052912;28;20287;-69
2022/06/14 11:08:22;;;;;;;5.97;4.00;;;;;;;18.46;85.70;94780.38;5052340;28;20278;-71
2022/06/14 11:11:10;;;;;;;6.20;3.38;;;;;;;18.52;85.43;94788.28;5051879;28;20592;-70
2022/06/14 11:13:49;;;;;;;4.00;2.58;;;;;;;18.72;83.41;94790.47;5051954;28;20235;-69
2022/06/14 11:16:27;;;;;;;5.68;2.88;;;;;;;18.75;82.95;94795.22;5052655;28;20196;-69
2022/06/14 11:19:23;;;;;;;20.27;3.53;;;;;;;18.77;83.25;94792.13;5052050;28;20650;-70
2022/06/14 11:22:11;;;;;;;5.72;3.13;;;;;;;18.75;83.56;94792.47;5051878;28;20438;-70
2022/06/14 11:24:46;;;;;;;4.53;2.83;;;;;;;18.86;84.12;94787.09;5051471;28;20239;-71
2022/06/14 11:27:22;;;;;;;5.22;2.78;;;;;;;18.92;84.83;94791.09;5051794;28;20269;-70
2022/06/14 11:29:59;;;;;;;3.33;2.30;;;;;;;18.76;82.41;94779.56;5051714;28;20199;-70
2022/06/14 11:32:30;;;;;;;2.97;2.10;;;;;;;18.94;82.44;94782.50;5051982;28;20572;-69
2022/06/14 11:35:06;;;;;;;6.65;2.60;;;;;;;19.12;85.00;94773.28;5038249;28;20226;-70
2022/06/14 11:37:48;;;;;;;4.80;2.30;;;;;;;19.46;82.05;94764.91;5051417;28;20223;-70
2022/06/14 11:40:21;;;;;;;6.00;2.80;;;;;;;19.71;79.47;94754.91;5050985;28;20203;-70
2022/06/14 11:43:02;;;;;;;2.35;1.98;;;;;;;20.45;79.14;94732.53;5051184;28;20257;-70
2022/06/14 11:45:42;;;;;;;1.83;1.55;;;;;;;20.81;79.05;94738.16;5054636;28;20235;-71
2022/06/14 11:48:16;;;;;;;4.22;2.35;;;;;;;21.11;76.92;94730.31;5052094;28;20192;-72
2022/06/14 11:50:50;;;;;;;5.18;1.80;;;;;;;21.91;75.75;94733.47;5051226;28;20273;-71
2022/06/14 11:53:35;;;;;;;2.72;2.03;;;;;;;22.48;73.25;94729.75;5051621;28;20228;-71
2022/06/14 11:56:09;;;;;;;2.50;2.22;;;;;;;23.20;74.06;94722.69;5040595;28;20192;-71
2022/06/14 11:58:53;;;;;;;4.72;2.58;;;;;;;23.48;70.69;94727.19;5051883;28;20203;-71
2022/06/14 12:01:31;;;;;;;4.85;2.72;;;;;;;23.28;68.78;94716.69;5051785;28;20275;-72
2022/06/14 12:04:31;;;;;;;3.63;2.58;;;;;;;23.60;67.48;94723.97;5038535;28;20345;-71
2022/06/14 12:07:03;;;;;;;3.42;2.75;;;;;;;24.30;67.66;94710.63;5051599;28;20561;-71
2022/06/14 12:10:01;;;;;;;3.33;2.80;;;;;;;25.08;66.24;94699.31;5051156;28;20227;-71
2022/06/14 12:12:34;;;;;;;4.10;3.10;;;;;;;25.53;60.65;94695.44;5041094;28;20265;-70
2022/06/14 12:15:06;;;;;;;3.13;2.80;;;;;;;25.32;57.57;94697.34;5051328;28;20244;-71
2022/06/14 12:17:37;;;;;;;6.57;3.13;;;;;;;25.18;62.75;94705.09;5051304;28;20368;-70
2022/06/14 12:20:08;;;;;;;4.60;3.20;;;;;;;23.99;64.61;94724.38;5051476;28;20196;-70
2022/06/14 12:22:44;;;;;;;3.50;2.83;;;;;;;22.68;67.53;94720.59;5051733;28;20257;-70
2022/06/14 12:28:12;;;;;;;6.30;2.55;;;;;;;22.06;60.26;94716.91;5051378;28;20214;-71
2022/06/14 12:30:41;;;;;;;2.88;1.90;;;;;;;21.47;59.03;94709.09;5050948;28;20314;-69
2022/06/14 12:33:17;;;;;;;3.58;1.90;;;;;;;21.53;60.40;94706.75;5050982;28;20251;-68